createdAt,value
2019-06-15T01:55:20.958Z,23.23
2019-06-15T01:56:12.573Z,23.22
2019-06-15T01:58:05.384Z,23.32
2019-06-15T01:59:05.329Z,23.23
2019-06-15T02:00:58.147Z,23.23
2019-06-15T02:01:58.051Z,23.32
2019-06-15T02:03:50.907Z,23.32
2019-06-15T02:04:50.845Z,23.34
2019-06-15T02:06:43.668Z,23.23
2019-06-15T02:07:43.584Z,23.25
2019-06-15T02:09:36.415Z,23.22
2019-06-15T02:10:36.343Z,23.23
2019-06-15T02:12:29.165Z,23.25
2019-06-15T02:13:29.095Z,23.29
2019-06-15T02:15:22.114Z,23.19
2019-06-15T02:16:21.943Z,23.19
2019-06-15T02:18:14.748Z,23.26
2019-06-15T02:19:14.689Z,23.29
2019-06-15T02:21:07.493Z,23.25
2019-06-15T02:22:07.417Z,23.23
2019-06-15T02:24:01.946Z,23.23
2019-06-15T02:25:01.895Z,23.31
2019-06-15T02:26:54.688Z,23.32
2019-06-15T02:27:54.602Z,23.31
2019-06-15T02:29:47.396Z,23.39
2019-06-15T02:30:47.351Z,23.42
2019-06-15T02:32:40.181Z,23.45
2019-06-15T02:33:40.090Z,23.49
2019-06-15T02:35:32.936Z,23.49
2019-06-15T02:36:32.851Z,23.56
2019-06-15T02:38:25.632Z,23.49
2019-06-15T02:39:25.594Z,23.54
2019-06-15T02:41:18.868Z,23.45
2019-06-15T02:42:18.775Z,23.44
2019-06-15T02:44:11.569Z,23.49
2019-06-15T02:45:11.545Z,23.44
2019-06-15T02:47:04.321Z,23.45
2019-06-15T02:48:04.238Z,23.52
2019-06-15T02:49:57.052Z,23.52
2019-06-15T02:50:56.985Z,23.44
2019-06-15T02:52:49.814Z,23.49
2019-06-15T02:53:49.740Z,23.53
2019-06-15T02:55:50.482Z,23.52
2019-06-15T02:56:42.556Z,23.49
2019-06-15T02:58:35.364Z,23.50
2019-06-15T02:59:35.299Z,23.44
2019-06-15T03:01:28.132Z,23.42
2019-06-15T03:02:28.176Z,23.38
2019-06-15T03:04:20.918Z,23.41
2019-06-15T03:05:20.841Z,23.34
2019-06-15T03:07:13.657Z,23.35
2019-06-15T03:08:13.573Z,23.38
2019-06-15T03:10:05.360Z,23.23
2019-06-15T03:11:05.278Z,23.22
2019-06-15T03:12:58.167Z,23.14
2019-06-15T03:13:58.101Z,23.18
2019-06-15T03:15:51.042Z,23.12
2019-06-15T03:16:50.970Z,23.01
2019-06-15T03:18:43.970Z,23.06
2019-06-15T03:19:43.901Z,23.06
2019-06-15T03:21:36.754Z,23.06
2019-06-15T03:22:36.693Z,23.06
2019-06-15T03:24:29.460Z,22.99
2019-06-15T03:25:29.396Z,22.89
2019-06-15T03:27:22.221Z,22.93
2019-06-15T03:28:22.131Z,22.94
2019-06-15T03:30:15.377Z,22.89
2019-06-15T03:31:15.294Z,22.84
2019-06-15T03:33:08.171Z,22.88
2019-06-15T03:34:08.093Z,22.82
2019-06-15T03:36:00.899Z,22.88
2019-06-15T03:37:00.844Z,22.91
2019-06-15T03:38:53.703Z,22.97
2019-06-15T03:39:53.641Z,22.93
2019-06-15T03:41:46.454Z,22.89
2019-06-15T03:42:46.349Z,22.97
2019-06-15T03:44:39.296Z,22.97
2019-06-15T03:45:39.217Z,22.96
2019-06-15T03:47:32.021Z,22.89
2019-06-15T03:48:31.940Z,22.89
2019-06-15T03:50:24.791Z,22.96
2019-06-15T03:51:24.727Z,22.89
2019-06-15T03:53:17.828Z,22.88
2019-06-15T03:54:17.781Z,22.89
2019-06-15T03:56:20.975Z,22.88
2019-06-15T03:57:10.557Z,22.88
2019-06-15T03:59:03.342Z,22.81
2019-06-15T04:00:03.281Z,22.89
2019-06-15T04:01:56.077Z,22.96
2019-06-15T04:02:56.008Z,22.91
2019-06-15T04:04:48.802Z,23.07
2019-06-15T04:05:48.737Z,23.04
2019-06-15T04:07:41.604Z,23.12
2019-06-15T04:08:41.533Z,23.21
2019-06-15T04:10:34.415Z,23.45
2019-06-15T04:11:34.339Z,23.47
2019-06-15T04:13:27.185Z,23.64
2019-06-15T04:14:27.107Z,23.57
2019-06-15T04:16:19.966Z,23.63
2019-06-15T04:17:19.901Z,23.68
2019-06-15T04:19:12.718Z,23.64
2019-06-15T04:20:12.635Z,23.67
2019-06-15T04:22:05.430Z,23.63
2019-06-15T04:23:05.365Z,23.69
2019-06-15T04:24:58.137Z,23.64
2019-06-15T04:25:58.074Z,23.67
2019-06-15T04:27:50.987Z,23.68
2019-06-15T04:28:50.906Z,23.67
2019-06-15T04:30:43.777Z,23.64
2019-06-15T04:31:43.722Z,23.68
2019-06-15T04:33:36.544Z,23.53
2019-06-15T04:34:36.447Z,23.54
2019-06-15T04:36:29.309Z,23.63
2019-06-15T04:37:29.243Z,23.60
2019-06-15T04:39:22.117Z,23.57
2019-06-15T04:40:22.044Z,23.63
2019-06-15T04:42:15.031Z,23.57
2019-06-15T04:43:14.867Z,23.59
2019-06-15T04:45:07.681Z,23.64
2019-06-15T04:46:07.618Z,23.59
2019-06-15T04:48:00.416Z,23.60
2019-06-15T04:49:00.346Z,23.62
2019-06-15T04:50:53.154Z,23.64
2019-06-15T04:51:53.094Z,23.69
2019-06-15T04:53:45.992Z,23.74
2019-06-15T04:54:45.874Z,23.62
2019-06-15T04:56:50.253Z,23.72
2019-06-15T04:57:38.632Z,23.79
2019-06-15T04:59:31.604Z,23.86
2019-06-15T05:00:31.516Z,23.96
2019-06-15T05:02:27.211Z,24.21
2019-06-15T05:03:24.297Z,24.09
2019-06-15T05:05:17.079Z,24.05
2019-06-15T05:06:17.036Z,24.23
2019-06-15T05:08:10.037Z,24.30
2019-06-15T05:09:09.951Z,24.36
2019-06-15T05:11:03.658Z,24.39
2019-06-15T05:12:02.684Z,24.39
2019-06-15T05:13:55.530Z,24.68
2019-06-15T05:14:55.453Z,24.52
2019-06-15T05:16:48.277Z,24.68
2019-06-15T05:17:48.186Z,24.83
2019-06-15T05:19:41.066Z,25.74
2019-06-15T05:20:41.004Z,26.03
2019-06-15T05:22:33.780Z,26.01
2019-06-15T05:23:33.738Z,26.49
2019-06-15T05:25:26.543Z,26.83
2019-06-15T05:26:26.486Z,26.90
2019-06-15T05:28:19.274Z,26.86
2019-06-15T05:29:19.202Z,26.81
2019-06-15T05:31:11.998Z,27.38
2019-06-15T05:32:11.952Z,27.40
2019-06-15T05:34:04.779Z,27.25
2019-06-15T05:35:04.717Z,27.23
2019-06-15T05:36:57.573Z,28.36
2019-06-15T05:37:57.478Z,27.88
2019-06-15T05:39:50.262Z,27.43
2019-06-15T05:40:50.180Z,27.18
2019-06-15T05:42:43.029Z,27.78
2019-06-15T05:43:42.942Z,27.58
2019-06-15T05:45:35.734Z,27.43
2019-06-15T05:46:35.656Z,27.68
2019-06-15T05:48:28.515Z,27.33
2019-06-15T05:49:28.446Z,27.96
2019-06-15T05:51:21.402Z,28.14
2019-06-15T05:52:21.335Z,28.40
2019-06-15T05:54:14.206Z,28.58
2019-06-15T05:55:14.145Z,28.82
2019-06-15T05:57:18.412Z,28.30
2019-06-15T05:58:05.909Z,28.48
2019-06-15T05:59:58.798Z,28.23
2019-06-15T06:00:58.691Z,28.27
2019-06-15T06:02:51.535Z,28.18
2019-06-15T06:03:51.420Z,27.71
2019-06-15T06:05:44.313Z,27.09
2019-06-15T06:06:44.252Z,26.88
2019-06-15T06:08:37.071Z,27.13
2019-06-15T06:09:37.005Z,26.65
2019-06-15T06:11:29.834Z,26.72
2019-06-15T06:12:29.761Z,26.64
2019-06-15T06:14:22.591Z,26.93
2019-06-15T06:15:22.502Z,27.16
2019-06-15T06:17:14.449Z,27.65
2019-06-15T06:18:14.392Z,28.45
2019-06-15T06:20:07.251Z,27.28
2019-06-15T06:21:07.166Z,26.88
2019-06-15T06:22:59.944Z,27.08
2019-06-15T06:23:59.899Z,27.35
2019-06-15T06:25:52.796Z,28.35
2019-06-15T06:26:52.693Z,28.42
2019-06-15T06:28:56.754Z,27.86
2019-06-15T06:29:45.435Z,28.20
2019-06-15T06:31:38.523Z,28.77
2019-06-15T06:32:38.469Z,28.70
2019-06-15T06:34:31.416Z,29.07
2019-06-15T06:35:31.339Z,29.48
2019-06-15T06:37:24.124Z,28.57
2019-06-15T06:38:24.066Z,27.98
2019-06-15T06:40:16.905Z,27.96
2019-06-15T06:41:16.824Z,27.63
2019-06-15T06:43:09.647Z,26.88
2019-06-15T06:44:09.589Z,27.01
2019-06-15T06:46:02.379Z,26.72
2019-06-15T06:47:02.316Z,26.73
2019-06-15T06:48:55.148Z,27.03
2019-06-15T06:49:55.078Z,27.24
2019-06-15T06:51:47.916Z,28.14
2019-06-15T06:52:47.833Z,29.03
2019-06-15T06:54:40.678Z,29.63
2019-06-15T06:55:40.600Z,28.72
2019-06-15T06:57:33.433Z,28.23
2019-06-15T06:58:33.365Z,28.15
2019-06-15T07:00:26.281Z,27.50
2019-06-15T07:01:26.171Z,27.40
2019-06-15T07:03:18.981Z,27.55
2019-06-15T07:04:18.921Z,27.38
2019-06-15T07:06:11.814Z,27.21
2019-06-15T07:07:11.861Z,27.45
2019-06-15T07:09:04.528Z,27.76
2019-06-15T07:10:04.454Z,27.87
2019-06-15T07:11:57.251Z,28.62
2019-06-15T07:12:57.186Z,28.95
2019-06-15T07:14:49.992Z,28.36
2019-06-15T07:15:49.918Z,28.39
2019-06-15T07:17:42.864Z,28.51
2019-06-15T07:18:42.860Z,28.25
2019-06-15T07:20:35.629Z,29.35
2019-06-15T07:21:35.552Z,29.33
2019-06-15T07:23:31.754Z,28.32
2019-06-15T07:24:28.264Z,28.46
2019-06-15T07:26:21.113Z,27.98
2019-06-15T07:27:21.038Z,27.84
2019-06-15T07:29:13.897Z,27.59
2019-06-15T07:30:13.825Z,27.48
2019-06-15T07:32:06.776Z,27.38
2019-06-15T07:33:06.676Z,27.33
2019-06-15T07:34:59.488Z,27.38
2019-06-15T07:35:59.411Z,27.31
2019-06-15T07:37:52.217Z,27.35
2019-06-15T07:38:52.164Z,27.13
2019-06-15T07:40:44.944Z,27.12
2019-06-15T07:41:44.872Z,27.08
2019-06-15T07:43:37.702Z,26.93
2019-06-15T07:44:37.618Z,27.02
2019-06-15T07:46:30.449Z,27.03
2019-06-15T07:47:30.375Z,27.16
2019-06-15T07:49:23.249Z,27.48
2019-06-15T07:50:23.176Z,27.58
2019-06-15T07:52:16.078Z,27.72
2019-06-15T07:53:16.017Z,27.69
2019-06-15T07:55:08.844Z,27.80
2019-06-15T07:56:08.774Z,27.78
2019-06-15T07:58:02.422Z,28.60
2019-06-15T07:59:02.363Z,28.97
2019-06-15T08:00:55.203Z,29.74
2019-06-15T08:01:55.137Z,29.73
2019-06-15T08:03:48.025Z,30.61
2019-06-15T08:04:47.897Z,30.68
2019-06-15T08:06:40.699Z,31.05
2019-06-15T08:07:40.668Z,31.05
2019-06-15T08:09:33.452Z,31.90
2019-06-15T08:10:33.367Z,32.32
2019-06-15T08:12:26.275Z,31.07
2019-06-15T08:13:26.212Z,31.40
2019-06-15T08:15:19.125Z,32.44
2019-06-15T08:16:18.990Z,31.75
2019-06-15T08:18:11.831Z,31.07
2019-06-15T08:19:11.766Z,31.12
2019-06-15T08:21:04.623Z,31.18
2019-06-15T08:22:04.551Z,31.35
2019-06-15T08:23:57.352Z,31.00
2019-06-15T08:24:57.292Z,30.94
2019-06-15T08:26:50.198Z,30.06
2019-06-15T08:27:50.122Z,29.88
2019-06-15T08:29:42.960Z,29.71
2019-06-15T08:30:42.896Z,29.67
2019-06-15T08:32:35.822Z,29.48
2019-06-15T08:33:35.697Z,29.44
2019-06-15T08:35:28.625Z,29.55
2019-06-15T08:36:28.552Z,29.97
2019-06-15T08:38:21.398Z,30.70
2019-06-15T08:39:21.329Z,31.16
2019-06-15T08:41:14.151Z,31.03
2019-06-15T08:42:14.079Z,31.49
2019-06-15T08:44:06.916Z,31.90
2019-06-15T08:45:06.851Z,31.34
2019-06-15T08:46:59.729Z,31.23
2019-06-15T08:47:59.646Z,31.57
2019-06-15T08:49:52.478Z,31.30
2019-06-15T08:50:52.404Z,31.88
2019-06-15T08:52:45.202Z,32.36
2019-06-15T08:53:45.168Z,32.34
2019-06-15T08:55:38.021Z,32.35
2019-06-15T08:56:37.940Z,32.29
2019-06-15T08:58:30.853Z,32.16
2019-06-15T08:59:30.775Z,32.36
2019-06-15T09:01:23.598Z,32.25
2019-06-15T09:02:23.522Z,32.72
2019-06-15T09:04:16.329Z,33.49
2019-06-15T09:05:16.265Z,33.40
2019-06-15T09:07:09.177Z,33.22
2019-06-15T09:08:09.009Z,33.24
2019-06-15T09:10:01.877Z,33.00
2019-06-15T09:11:01.780Z,33.03
2019-06-15T09:12:54.621Z,33.14
2019-06-15T09:13:54.564Z,33.35
2019-06-15T09:15:47.466Z,33.02
2019-06-15T09:16:47.394Z,33.38
2019-06-15T09:18:40.185Z,32.84
2019-06-15T09:19:40.149Z,32.78
2019-06-15T09:21:33.022Z,32.81
2019-06-15T09:22:32.954Z,33.45
2019-06-15T09:24:25.859Z,33.92
2019-06-15T09:25:25.799Z,34.23
2019-06-15T09:27:18.851Z,34.53
2019-06-15T09:28:18.785Z,33.43
2019-06-15T09:30:11.599Z,33.50
2019-06-15T09:31:11.576Z,33.02
2019-06-15T09:33:04.478Z,32.99
2019-06-15T09:34:18.044Z,33.24
2019-06-15T09:35:57.398Z,34.40
2019-06-15T09:36:57.142Z,35.17
2019-06-15T09:38:49.953Z,34.83
2019-06-15T09:39:49.896Z,34.64
2019-06-15T09:41:42.848Z,33.94
2019-06-15T09:42:42.853Z,33.90
2019-06-15T09:44:35.700Z,33.21
2019-06-15T09:45:35.651Z,33.56
2019-06-15T09:47:28.595Z,34.21
2019-06-15T09:48:28.525Z,34.37
2019-06-15T09:50:21.352Z,34.36
2019-06-15T09:51:21.306Z,35.03
2019-06-15T09:53:14.403Z,35.24
2019-06-15T09:54:14.366Z,35.39
2019-06-15T09:56:07.231Z,35.84
2019-06-15T09:57:07.156Z,35.02
2019-06-15T09:58:59.973Z,33.92
2019-06-15T09:59:59.938Z,34.37
2019-06-15T10:01:52.740Z,34.38
2019-06-15T10:02:52.672Z,33.79
2019-06-15T10:04:45.551Z,33.84
2019-06-15T10:05:45.493Z,33.84
2019-06-15T10:07:38.345Z,34.36
2019-06-15T10:08:38.285Z,34.60
2019-06-15T10:10:31.148Z,35.13
2019-06-15T10:11:31.095Z,34.67
2019-06-15T10:13:23.988Z,34.37
2019-06-15T10:14:23.908Z,33.63
2019-06-15T10:16:16.760Z,32.81
2019-06-15T10:17:16.686Z,32.80
2019-06-15T10:19:09.584Z,32.78
2019-06-15T10:20:09.519Z,33.20
2019-06-15T10:22:02.455Z,32.72
2019-06-15T10:23:02.384Z,32.47
2019-06-15T10:24:55.303Z,32.68
2019-06-15T10:25:55.262Z,32.59
2019-06-15T10:27:48.192Z,32.14
2019-06-15T10:28:48.128Z,32.12
2019-06-15T10:30:40.939Z,32.25
2019-06-15T10:31:40.890Z,32.35
2019-06-15T10:33:33.745Z,32.36
2019-06-15T10:34:33.682Z,32.25
2019-06-15T10:36:26.568Z,32.22
2019-06-15T10:37:26.480Z,32.07
2019-06-15T10:39:19.365Z,32.25
2019-06-15T10:40:19.294Z,32.31
2019-06-15T10:42:12.154Z,32.40
2019-06-15T10:43:12.087Z,32.44
2019-06-15T10:45:04.929Z,32.25
2019-06-15T10:46:04.877Z,32.34
2019-06-15T10:47:57.688Z,32.32
2019-06-15T10:48:57.621Z,32.02
2019-06-15T10:50:50.447Z,31.91
2019-06-15T10:51:50.378Z,31.94
2019-06-15T10:53:43.289Z,32.06
2019-06-15T10:54:43.207Z,32.16
2019-06-15T10:56:36.066Z,32.44
2019-06-15T10:57:35.992Z,32.63
2019-06-15T10:59:28.811Z,32.69
2019-06-15T11:00:28.747Z,32.65
2019-06-15T11:02:21.590Z,32.85
2019-06-15T11:03:21.495Z,32.91
2019-06-15T11:05:14.433Z,32.66
2019-06-15T11:06:14.359Z,32.49
2019-06-15T11:08:07.377Z,32.46
2019-06-15T11:09:07.323Z,32.50
2019-06-15T11:11:00.151Z,32.47
2019-06-15T11:12:00.057Z,32.34
2019-06-15T11:13:52.924Z,32.24
2019-06-15T11:14:52.855Z,31.99
2019-06-15T11:16:45.728Z,31.65
2019-06-15T11:17:45.653Z,31.84
2019-06-15T11:19:38.514Z,31.98
2019-06-15T11:20:38.399Z,32.14
2019-06-15T11:22:31.244Z,31.92
2019-06-15T11:23:31.160Z,32.05
2019-06-15T11:25:23.950Z,32.14
2019-06-15T11:26:23.896Z,32.10
2019-06-15T11:28:16.732Z,32.03
2019-06-15T11:29:16.650Z,32.10
2019-06-15T11:31:09.518Z,32.22
2019-06-15T11:32:09.442Z,32.36
2019-06-15T11:34:02.254Z,32.43
2019-06-15T11:35:02.204Z,32.47
2019-06-15T11:36:55.038Z,32.41
2019-06-15T11:37:54.977Z,32.51
2019-06-15T11:39:47.826Z,32.71
2019-06-15T11:40:47.767Z,32.85
2019-06-15T11:42:40.702Z,33.06
2019-06-15T11:43:40.611Z,33.28
2019-06-15T11:45:33.428Z,33.45
2019-06-15T11:46:33.366Z,33.22
2019-06-15T11:48:28.887Z,33.24
2019-06-15T11:49:26.109Z,33.26
2019-06-15T11:51:18.902Z,33.24
2019-06-15T11:52:18.842Z,33.22
2019-06-15T11:54:11.686Z,33.22
2019-06-15T11:55:11.611Z,33.06
2019-06-15T11:57:04.499Z,33.18
2019-06-15T11:58:04.420Z,33.45
2019-06-15T11:59:57.232Z,33.68
2019-06-15T12:00:57.162Z,33.78
2019-06-15T12:02:50.040Z,33.49
2019-06-15T12:03:49.923Z,33.31
2019-06-15T12:05:42.816Z,33.14
2019-06-15T12:06:42.757Z,33.12
2019-06-15T12:08:36.672Z,33.45
2019-06-15T12:09:35.643Z,33.43
2019-06-15T12:11:28.440Z,33.71
2019-06-15T12:12:28.380Z,33.62
2019-06-15T12:14:21.205Z,33.60
2019-06-15T12:15:21.128Z,33.62
2019-06-15T12:17:14.176Z,33.40
2019-06-15T12:18:14.135Z,33.26
2019-06-15T12:20:06.968Z,32.43
2019-06-15T12:21:06.977Z,32.50
2019-06-15T12:22:58.682Z,32.53
2019-06-15T12:23:58.626Z,32.59
2019-06-15T12:25:51.433Z,32.78
2019-06-15T12:26:51.355Z,32.71
2019-06-15T12:28:44.722Z,32.84
2019-06-15T12:29:44.146Z,32.83
2019-06-15T12:31:36.976Z,32.98
2019-06-15T12:32:36.922Z,32.95
2019-06-15T12:34:29.897Z,32.91
2019-06-15T12:35:29.867Z,33.17
2019-06-15T12:37:22.614Z,33.28
2019-06-15T12:38:22.550Z,33.47
2019-06-15T12:40:15.551Z,33.62
2019-06-15T12:41:15.317Z,33.70
2019-06-15T12:43:08.174Z,33.44
2019-06-15T12:44:08.106Z,33.43
2019-06-15T12:46:00.982Z,33.62
2019-06-15T12:47:00.931Z,33.53
2019-06-15T12:48:53.824Z,33.52
2019-06-15T12:49:53.730Z,33.59
2019-06-15T12:51:46.657Z,33.53
2019-06-15T12:52:46.593Z,33.38
2019-06-15T12:54:39.468Z,33.03
2019-06-15T12:55:39.397Z,33.03
2019-06-15T12:57:32.339Z,33.24
2019-06-15T12:58:32.267Z,33.38
2019-06-15T13:00:25.122Z,33.37
2019-06-15T13:01:25.090Z,33.22
2019-06-15T13:03:18.352Z,32.91
2019-06-15T13:04:17.867Z,32.68
2019-06-15T13:06:10.792Z,32.28
2019-06-15T13:07:10.746Z,32.40
2019-06-15T13:09:03.843Z,32.49
2019-06-15T13:10:03.765Z,32.49
2019-06-15T13:11:56.663Z,32.66
2019-06-15T13:12:56.600Z,32.80
2019-06-15T13:14:49.656Z,32.85
2019-06-15T13:15:49.587Z,32.85
2019-06-15T13:17:42.459Z,32.59
2019-06-15T13:18:42.338Z,32.58
2019-06-15T13:20:35.369Z,32.58
2019-06-15T13:21:35.125Z,32.46
2019-06-15T13:23:28.031Z,32.41
2019-06-15T13:24:28.027Z,32.19
2019-06-15T13:26:21.090Z,31.98
2019-06-15T13:27:20.976Z,31.92
2019-06-15T13:29:13.927Z,32.13
2019-06-15T13:30:13.847Z,32.10
2019-06-15T13:32:06.856Z,32.13
2019-06-15T13:33:06.769Z,32.07
2019-06-15T13:34:59.648Z,32.25
2019-06-15T13:35:59.575Z,32.35
2019-06-15T13:37:52.390Z,32.44
2019-06-15T13:38:52.326Z,32.53
2019-06-15T13:40:45.239Z,32.69
2019-06-15T13:41:45.097Z,32.81
2019-06-15T13:43:38.158Z,32.90
2019-06-15T13:44:38.069Z,32.83
2019-06-15T13:46:30.866Z,32.87
2019-06-15T13:47:30.861Z,32.77
2019-06-15T13:49:23.669Z,32.58
2019-06-15T13:50:23.586Z,32.66
2019-06-15T13:52:16.463Z,32.58
2019-06-15T13:53:16.403Z,32.62
2019-06-15T13:55:09.311Z,32.54
2019-06-15T13:56:09.243Z,32.69
2019-06-15T13:58:02.243Z,32.66
2019-06-15T13:59:02.210Z,32.69
2019-06-15T14:00:55.084Z,32.54
2019-06-15T14:01:54.988Z,32.54
2019-06-15T14:03:47.807Z,32.44
2019-06-15T14:04:47.763Z,32.50
2019-06-15T14:06:40.806Z,32.40
2019-06-15T14:07:40.713Z,32.53
2019-06-15T14:09:34.096Z,32.41
2019-06-15T14:10:34.021Z,32.40
2019-06-15T14:12:26.921Z,32.50
2019-06-15T14:13:26.859Z,32.43
2019-06-15T14:15:20.076Z,32.40
2019-06-15T14:16:20.031Z,32.46
2019-06-15T14:18:12.934Z,32.32
2019-06-15T14:19:12.717Z,32.24
2019-06-15T14:21:05.757Z,32.27
2019-06-15T14:22:05.661Z,32.28
2019-06-15T14:23:58.536Z,32.25
2019-06-15T14:24:58.521Z,32.36
2019-06-15T14:26:51.501Z,32.25
2019-06-15T14:27:51.440Z,32.36
2019-06-15T14:29:44.372Z,32.16
2019-06-15T14:30:44.259Z,32.28
2019-06-15T14:32:37.129Z,32.12
2019-06-15T14:33:37.056Z,32.06
2019-06-15T14:35:29.874Z,32.12
2019-06-15T14:36:29.810Z,32.21
2019-06-15T14:38:22.719Z,32.27
2019-06-15T14:39:22.840Z,32.21
2019-06-15T14:41:15.615Z,32.14
2019-06-15T14:42:15.625Z,32.22
2019-06-15T14:44:08.576Z,32.16
2019-06-15T14:45:08.454Z,32.12
2019-06-15T14:47:01.353Z,32.05
2019-06-15T14:48:01.289Z,31.99
2019-06-15T14:49:54.284Z,32.03
2019-06-15T14:50:54.197Z,31.95
2019-06-15T14:52:46.938Z,31.90
2019-06-15T14:53:51.622Z,31.90
2019-06-15T14:55:40.442Z,31.68
2019-06-15T14:56:40.324Z,31.68
2019-06-15T14:58:33.491Z,31.60
2019-06-15T14:59:46.415Z,31.59
2019-06-15T15:01:26.412Z,31.69
2019-06-15T15:02:26.457Z,31.60
2019-06-15T15:04:21.348Z,31.72
2019-06-15T15:05:21.216Z,31.62
2019-06-15T15:07:16.782Z,31.35
2019-06-15T15:08:13.966Z,31.20
2019-06-15T15:10:07.280Z,31.27
2019-06-15T15:11:06.833Z,31.27
2019-06-15T15:12:59.805Z,31.05
2019-06-15T15:13:59.769Z,31.01
2019-06-15T15:15:53.222Z,31.10
2019-06-15T15:16:52.551Z,31.01
2019-06-15T15:18:46.478Z,31.03
2019-06-15T15:19:46.635Z,30.82
2019-06-15T15:21:38.114Z,30.90
2019-06-15T15:22:38.050Z,30.81
2019-06-15T15:24:30.952Z,30.57
2019-06-15T15:25:31.381Z,30.67
2019-06-15T15:27:26.678Z,30.49
2019-06-15T15:28:23.955Z,30.34
2019-06-15T15:30:17.100Z,30.29
2019-06-15T15:31:17.416Z,30.25
2019-06-15T15:33:09.800Z,30.08
2019-06-15T15:34:09.746Z,29.97
2019-06-15T15:36:02.721Z,30.01
2019-06-15T15:37:02.604Z,30.07
2019-06-15T15:38:56.098Z,30.22
2019-06-15T15:39:56.501Z,30.25
2019-06-15T15:41:48.513Z,30.19
2019-06-15T15:42:48.452Z,30.01
2019-06-15T15:44:41.282Z,29.94
2019-06-15T15:45:41.163Z,29.85
2019-06-15T15:47:36.051Z,29.82
2019-06-15T15:48:36.244Z,29.86
2019-06-15T15:50:26.862Z,29.71
2019-06-15T15:51:26.747Z,29.71
2019-06-15T15:53:19.538Z,29.71
2019-06-15T15:54:19.479Z,29.62
2019-06-15T15:56:12.405Z,29.39
2019-06-15T15:57:12.345Z,29.27
2019-06-15T15:59:06.819Z,29.37
2019-06-15T16:00:07.261Z,29.33
2019-06-15T16:01:58.566Z,29.37
2019-06-15T16:02:58.526Z,29.29
2019-06-15T16:04:51.516Z,29.15
2019-06-15T16:05:51.425Z,29.05
2019-06-15T16:07:46.469Z,28.92
2019-06-15T16:08:46.867Z,28.89
2019-06-15T16:10:37.341Z,28.80
2019-06-15T16:11:37.167Z,28.88
2019-06-15T16:13:28.826Z,29.00
2019-06-15T16:14:28.706Z,28.88
2019-06-15T16:16:21.550Z,28.79
2019-06-15T16:17:21.433Z,28.87
2019-06-15T16:19:16.771Z,28.74
2019-06-15T16:20:17.044Z,28.82
2019-06-15T16:22:07.370Z,28.72
2019-06-15T16:23:07.770Z,28.65
2019-06-15T16:25:00.272Z,28.65
2019-06-15T16:26:00.220Z,28.69
2019-06-15T16:27:53.160Z,28.52
2019-06-15T16:28:53.069Z,28.42
2019-06-15T16:31:05.102Z,28.21
2019-06-15T16:31:46.233Z,28.25
2019-06-15T16:33:38.669Z,28.11
2019-06-15T16:34:38.610Z,28.05
2019-06-15T16:36:30.525Z,28.02
2019-06-15T16:37:30.468Z,27.98
2019-06-15T16:39:23.559Z,28.03
2019-06-15T16:40:23.486Z,27.99
2019-06-15T16:42:16.389Z,27.98
2019-06-15T16:43:17.533Z,28.05
2019-06-15T16:45:09.214Z,28.01
2019-06-15T16:46:09.147Z,27.99
2019-06-15T16:48:02.090Z,28.03
2019-06-15T16:49:02.060Z,28.01
2019-06-15T16:50:53.878Z,28.02
2019-06-15T16:51:53.776Z,27.91
2019-06-15T16:53:47.344Z,27.95
2019-06-15T16:54:47.027Z,27.93
2019-06-15T16:56:39.375Z,27.88
2019-06-15T16:57:39.299Z,27.84
2019-06-15T16:59:31.255Z,27.84
2019-06-15T17:00:32.816Z,27.78
2019-06-15T17:02:26.073Z,27.71
2019-06-15T17:03:26.139Z,27.81
2019-06-15T17:05:16.989Z,27.68
2019-06-15T17:06:16.938Z,27.69
2019-06-15T17:08:09.811Z,27.76
2019-06-15T17:09:09.755Z,27.69
2019-06-15T17:11:02.845Z,27.62
2019-06-15T17:12:02.710Z,27.68
2019-06-15T17:13:56.293Z,27.66
2019-06-15T17:14:54.485Z,27.66
2019-06-15T17:16:47.416Z,27.59
2019-06-15T17:17:47.350Z,27.63
2019-06-15T17:19:40.230Z,27.50
2019-06-15T17:20:40.146Z,27.49
2019-06-15T17:22:35.345Z,27.42
2019-06-15T17:23:33.021Z,27.34
2019-06-15T17:25:27.000Z,27.25
2019-06-15T17:26:26.103Z,27.21
2019-06-15T17:28:18.872Z,27.15
2019-06-15T17:29:18.760Z,27.12
2019-06-15T17:31:11.546Z,27.18
2019-06-15T17:32:11.498Z,27.21
2019-06-15T17:34:07.028Z,27.11
2019-06-15T17:35:06.166Z,27.06
2019-06-15T17:36:57.501Z,27.01
2019-06-15T17:37:57.097Z,27.03
2019-06-15T17:39:50.157Z,26.91
2019-06-15T17:40:50.034Z,26.93
2019-06-15T17:42:43.043Z,26.83
2019-06-15T17:43:42.977Z,26.87
2019-06-15T17:45:37.527Z,26.90
2019-06-15T17:46:35.754Z,27.09
2019-06-15T17:48:28.536Z,27.77
2019-06-15T17:49:28.492Z,27.78
2019-06-15T17:51:21.540Z,27.18
2019-06-15T17:52:21.468Z,27.02
2019-06-15T17:54:17.027Z,26.75
2019-06-15T17:55:17.706Z,26.66
2019-06-15T17:57:08.108Z,26.60
2019-06-15T17:58:07.957Z,26.54
2019-06-15T18:00:00.767Z,26.51
2019-06-15T18:01:00.705Z,26.56
2019-06-15T18:02:56.037Z,26.51
2019-06-15T18:03:55.345Z,26.50
2019-06-15T18:05:48.161Z,26.57
2019-06-15T18:06:46.904Z,26.50
2019-06-15T18:08:39.399Z,26.47
2019-06-15T18:09:39.174Z,26.57
2019-06-15T18:11:32.054Z,26.46
2019-06-15T18:12:31.990Z,26.50
2019-06-15T18:14:26.392Z,26.42
2019-06-15T18:15:26.547Z,26.44
2019-06-15T18:17:17.701Z,26.32
2019-06-15T18:18:17.699Z,26.31
2019-06-15T18:20:10.588Z,26.29
2019-06-15T18:21:10.728Z,26.32
2019-06-15T18:23:05.886Z,26.42
2019-06-15T18:24:03.209Z,26.46
2019-06-15T18:25:56.192Z,26.31
2019-06-15T18:26:56.470Z,26.31
2019-06-15T18:28:48.875Z,26.12
2019-06-15T18:29:48.744Z,26.19
2019-06-15T18:31:41.758Z,26.03
2019-06-15T18:32:41.643Z,26.01
2019-06-15T18:34:36.696Z,25.93
2019-06-15T18:35:36.180Z,25.94
2019-06-15T18:37:27.209Z,25.94
2019-06-15T18:38:27.100Z,25.96
2019-06-15T18:40:20.523Z,25.82
2019-06-15T18:41:20.043Z,25.90
2019-06-15T18:43:13.096Z,25.71
2019-06-15T18:44:12.860Z,25.81
2019-06-15T18:46:07.177Z,25.82
2019-06-15T18:47:07.135Z,25.83
2019-06-15T18:48:57.485Z,25.72
2019-06-15T18:49:57.535Z,25.72
2019-06-15T18:51:50.173Z,25.67
2019-06-15T18:52:50.096Z,25.66
2019-06-15T18:54:43.113Z,25.67
2019-06-15T18:55:42.993Z,25.57
2019-06-15T18:57:37.240Z,25.42
2019-06-15T18:58:37.171Z,25.27
2019-06-15T19:00:28.571Z,25.27
2019-06-15T19:01:28.536Z,25.23
2019-06-15T19:03:21.472Z,25.16
2019-06-15T19:04:26.995Z,25.04
2019-06-15T19:06:16.582Z,24.93
2019-06-15T19:07:16.157Z,24.93
2019-06-15T19:09:06.981Z,24.82
2019-06-15T19:10:07.300Z,24.80
2019-06-15T19:11:59.751Z,24.77
2019-06-15T19:12:59.605Z,24.77
2019-06-15T19:14:52.585Z,24.80
2019-06-15T19:15:52.599Z,24.75
2019-06-15T19:17:46.356Z,24.75
2019-06-15T19:18:46.280Z,24.74
2019-06-15T19:20:38.402Z,24.75
2019-06-15T19:21:38.137Z,24.79
2019-06-15T19:23:31.108Z,24.74
2019-06-15T19:24:31.264Z,24.55
2019-06-15T19:26:26.753Z,24.66
2019-06-15T19:27:25.976Z,24.63
2019-06-15T19:29:17.226Z,24.55
2019-06-15T19:30:16.797Z,24.49
2019-06-15T19:32:09.649Z,24.45
2019-06-15T19:33:09.524Z,24.46
2019-06-15T19:35:02.479Z,24.46
2019-06-15T19:36:02.307Z,24.34
2019-06-15T19:37:56.680Z,24.39
2019-06-15T19:38:57.159Z,24.36
2019-06-15T19:40:48.882Z,24.30
2019-06-15T19:41:49.150Z,24.30
2019-06-15T19:43:41.731Z,24.19
2019-06-15T19:44:42.063Z,24.24
2019-06-15T19:46:36.557Z,24.30
2019-06-15T19:47:34.379Z,24.41
2019-06-15T19:49:27.431Z,24.46
2019-06-15T19:50:27.236Z,24.37
2019-06-15T19:52:19.998Z,24.36
2019-06-15T19:53:20.160Z,24.27
2019-06-15T19:55:12.646Z,24.21
2019-06-15T19:56:12.605Z,24.26
2019-06-15T19:58:07.201Z,24.21
2019-06-15T19:59:06.828Z,24.21
2019-06-15T20:00:58.657Z,24.06
2019-06-15T20:01:58.257Z,24.02
2019-06-15T20:03:51.190Z,24.09
2019-06-15T20:05:00.269Z,24.12
2019-06-15T20:06:45.982Z,24.04
2019-06-15T20:07:46.443Z,24.04
2019-06-15T20:09:37.163Z,23.94
2019-06-15T20:10:37.166Z,23.93
2019-06-15T20:12:29.347Z,23.87
2019-06-15T20:13:29.359Z,23.87
2019-06-15T20:15:25.892Z,23.71
2019-06-15T20:16:22.125Z,23.77
2019-06-15T20:18:17.443Z,23.67
2019-06-15T20:19:17.304Z,23.69
2019-06-15T20:21:07.804Z,23.67
2019-06-15T20:22:07.735Z,23.64
2019-06-15T20:24:00.528Z,23.67
2019-06-15T20:25:00.361Z,23.59
2019-06-15T20:26:53.576Z,23.60